sensor_id;sensor_type;location;lat;lon;timestamp;temperature;humidity
3996;DHT22;2012;49.794;9.722;2022-09-09T00:10:29;15.60;99.90
3996;DHT22;2012;49.794;9.722;2022-09-09T00:16:08;15.70;99.90
3996;DHT22;2012;49.794;9.722;2022-09-09T00:18:53;15.60;99.90
3996;DHT22;2012;49.794;9.722;2022-09-09T00:22:18;15.80;99.90
3996;DHT22;2012;49.794;9.722;2022-09-09T00:24:52;15.60;99.90
3996;DHT22;2012;49.794;9.722;2022-09-09T00:30:17;15.70;99.90
3996;DHT22;2012;49.794;9.722;2022-09-09T00:32:48;15.90;99.90
3996;DHT22;2012;49.794;9.722;2022-09-09T00:37:48;16.00;99.90
3996;DHT22;2012;49.794;9.722;2022-09-09T00:48:38;15.90;99.90
3996;DHT22;2012;49.794;9.722;2022-09-09T00:56:55;15.70;99.90
3996;DHT22;2012;49.794;9.722;2022-09-09T01:05:05;15.80;99.90
3996;DHT22;2012;49.794;9.722;2022-09-09T01:07:33;15.80;99.90
3996;DHT22;2012;49.794;9.722;2022-09-09T01:10:07;15.90;99.90
3996;DHT22;2012;49.794;9.722;2022-09-09T01:12:43;15.80;99.90
3996;DHT22;2012;49.794;9.722;2022-09-09T01:15:36;15.90;99.90
3996;DHT22;2012;49.794;9.722;2022-09-09T01:18:14;15.80;99.90
3996;DHT22;2012;49.794;9.722;2022-09-09T01:23:24;15.70;99.90
3996;DHT22;2012;49.794;9.722;2022-09-09T01:26:33;15.70;99.90
3996;DHT22;2012;49.794;9.722;2022-09-09T01:29:01;15.70;99.90
3996;DHT22;2012;49.794;9.722;2022-09-09T01:31:35;15.60;99.90
3996;DHT22;2012;49.794;9.722;2022-09-09T01:34:12;15.60;99.90
3996;DHT22;2012;49.794;9.722;2022-09-09T01:39:27;15.60;99.90
3996;DHT22;2012;49.794;9.722;2022-09-09T01:41:55;15.60;99.90
3996;DHT22;2012;49.794;9.722;2022-09-09T01:44:23;15.70;99.90
3996;DHT22;2012;49.794;9.722;2022-09-09T01:46:50;15.70;99.90
3996;DHT22;2012;49.794;9.722;2022-09-09T01:49:18;15.70;99.90
3996;DHT22;2012;49.794;9.722;2022-09-09T01:51:49;15.70;99.90
3996;DHT22;2012;49.794;9.722;2022-09-09T01:54:16;15.70;99.90
3996;DHT22;2012;49.794;9.722;2022-09-09T02:00:07;15.60;99.90
3996;DHT22;2012;49.794;9.722;2022-09-09T02:03:00;15.50;99.90
3996;DHT22;2012;49.794;9.722;2022-09-09T02:05:40;15.50;99.90
3996;DHT22;2012;49.794;9.722;2022-09-09T02:08:28;15.40;99.90
3996;DHT22;2012;49.794;9.722;2022-09-09T02:11:14;15.60;99.90
3996;DHT22;2012;49.794;9.722;2022-09-09T02:13:43;15.60;99.90
3996;DHT22;2012;49.794;9.722;2022-09-09T02:16:37;15.50;99.90
3996;DHT22;2012;49.794;9.722;2022-09-09T02:19:16;15.60;99.90
3996;DHT22;2012;49.794;9.722;2022-09-09T02:21:44;15.60;99.90
3996;DHT22;2012;49.794;9.722;2022-09-09T02:24:13;15.70;99.90
3996;DHT22;2012;49.794;9.722;2022-09-09T02:26:42;15.60;99.90
3996;DHT22;2012;49.794;9.722;2022-09-09T02:29:18;15.70;99.90
3996;DHT22;2012;49.794;9.722;2022-09-09T02:31:47;15.70;99.90
3996;DHT22;2012;49.794;9.722;2022-09-09T02:34:18;15.70;99.90
3996;DHT22;2012;49.794;9.722;2022-09-09T02:36:46;15.50;99.90
3996;DHT22;2012;49.794;9.722;2022-09-09T02:39:14;15.60;99.90
3996;DHT22;2012;49.794;9.722;2022-09-09T02:41:42;15.60;99.90
3996;DHT22;2012;49.794;9.722;2022-09-09T02:44:14;15.60;99.90
3996;DHT22;2012;49.794;9.722;2022-09-09T02:49:48;15.70;99.90
3996;DHT22;2012;49.794;9.722;2022-09-09T02:52:36;15.80;99.90
3996;DHT22;2012;49.794;9.722;2022-09-09T02:55:12;15.90;99.90
3996;DHT22;2012;49.794;9.722;2022-09-09T02:57:43;15.90;99.90
3996;DHT22;2012;49.794;9.722;2022-09-09T03:00:14;15.90;99.90
3996;DHT22;2012;49.794;9.722;2022-09-09T03:02:41;16.00;99.90
3996;DHT22;2012;49.794;9.722;2022-09-09T03:05:08;15.90;99.90
3996;DHT22;2012;49.794;9.722;2022-09-09T03:07:35;16.00;99.90
3996;DHT22;2012;49.794;9.722;2022-09-09T03:10:02;16.10;99.90
3996;DHT22;2012;49.794;9.722;2022-09-09T03:12:29;15.90;99.90
3996;DHT22;2012;49.794;9.722;2022-09-09T03:14:55;15.90;99.90
3996;DHT22;2012;49.794;9.722;2022-09-09T03:17:22;15.90;99.90
3996;DHT22;2012;49.794;9.722;2022-09-09T03:19:49;16.00;99.90
3996;DHT22;2012;49.794;9.722;2022-09-09T03:22:16;16.00;99.90
3996;DHT22;2012;49.794;9.722;2022-09-09T03:24:43;16.00;99.90
3996;DHT22;2012;49.794;9.722;2022-09-09T03:27:09;15.90;99.90
3996;DHT22;2012;49.794;9.722;2022-09-09T03:29:36;15.90;99.90
3996;DHT22;2012;49.794;9.722;2022-09-09T03:32:03;15.90;99.90
3996;DHT22;2012;49.794;9.722;2022-09-09T03:34:30;15.90;99.90
3996;DHT22;2012;49.794;9.722;2022-09-09T03:36:57;15.90;99.90
3996;DHT22;2012;49.794;9.722;2022-09-09T03:39:23;15.90;99.90
3996;DHT22;2012;49.794;9.722;2022-09-09T03:41:50;15.90;99.90
3996;DHT22;2012;49.794;9.722;2022-09-09T03:44:17;16.00;99.90
3996;DHT22;2012;49.794;9.722;2022-09-09T03:46:43;15.90;99.90
3996;DHT22;2012;49.794;9.722;2022-09-09T03:49:10;15.90;99.90
3996;DHT22;2012;49.794;9.722;2022-09-09T03:51:37;15.90;99.90
3996;DHT22;2012;49.794;9.722;2022-09-09T03:54:05;15.80;99.90
3996;DHT22;2012;49.794;9.722;2022-09-09T03:56:34;15.90;99.90
3996;DHT22;2012;49.794;9.722;2022-09-09T03:59:02;15.90;99.90
3996;DHT22;2012;49.794;9.722;2022-09-09T04:01:29;15.90;99.90
3996;DHT22;2012;49.794;9.722;2022-09-09T04:03:55;15.80;99.90
3996;DHT22;2012;49.794;9.722;2022-09-09T04:06:25;15.90;99.90
3996;DHT22;2012;49.794;9.722;2022-09-09T04:08:52;15.80;99.90
3996;DHT22;2012;49.794;9.722;2022-09-09T04:11:19;15.90;99.90
3996;DHT22;2012;49.794;9.722;2022-09-09T04:13:46;15.80;99.90
3996;DHT22;2012;49.794;9.722;2022-09-09T04:16:13;15.70;99.90
3996;DHT22;2012;49.794;9.722;2022-09-09T04:18:40;15.60;99.90
3996;DHT22;2012;49.794;9.722;2022-09-09T04:21:09;15.70;99.90
3996;DHT22;2012;49.794;9.722;2022-09-09T04:23:36;15.70;99.90
3996;DHT22;2012;49.794;9.722;2022-09-09T04:26:03;15.80;99.90
3996;DHT22;2012;49.794;9.722;2022-09-09T04:28:32;15.70;99.90
3996;DHT22;2012;49.794;9.722;2022-09-09T04:31:17;15.70;99.90
3996;DHT22;2012;49.794;9.722;2022-09-09T04:33:45;15.60;99.90
3996;DHT22;2012;49.794;9.722;2022-09-09T04:36:13;15.50;99.90
3996;DHT22;2012;49.794;9.722;2022-09-09T04:38:41;15.60;99.90
3996;DHT22;2012;49.794;9.722;2022-09-09T04:41:08;15.60;99.90
3996;DHT22;2012;49.794;9.722;2022-09-09T04:43:38;15.60;99.90
3996;DHT22;2012;49.794;9.722;2022-09-09T04:46:05;15.60;99.90
3996;DHT22;2012;49.794;9.722;2022-09-09T04:48:32;15.50;99.90
3996;DHT22;2012;49.794;9.722;2022-09-09T04:51:08;15.50;99.90
3996;DHT22;2012;49.794;9.722;2022-09-09T04:53:35;15.50;99.90
3996;DHT22;2012;49.794;9.722;2022-09-09T04:56:08;15.60;99.90
3996;DHT22;2012;49.794;9.722;2022-09-09T04:58:37;15.70;99.90
3996;DHT22;2012;49.794;9.722;2022-09-09T05:01:12;15.70;99.90
3996;DHT22;2012;49.794;9.722;2022-09-09T05:03:39;15.70;99.90
3996;DHT22;2012;49.794;9.722;2022-09-09T05:06:08;15.70;99.90
3996;DHT22;2012;49.794;9.722;2022-09-09T05:08:37;15.70;99.90
3996;DHT22;2012;49.794;9.722;2022-09-09T05:11:16;15.70;99.90
3996;DHT22;2012;49.794;9.722;2022-09-09T05:13:43;15.70;99.90
3996;DHT22;2012;49.794;9.722;2022-09-09T05:16:11;15.70;99.90
3996;DHT22;2012;49.794;9.722;2022-09-09T05:18:39;15.70;99.90
3996;DHT22;2012;49.794;9.722;2022-09-09T05:21:06;15.70;99.90
3996;DHT22;2012;49.794;9.722;2022-09-09T05:23:34;15.60;99.90
3996;DHT22;2012;49.794;9.722;2022-09-09T05:26:01;15.70;99.90
3996;DHT22;2012;49.794;9.722;2022-09-09T05:28:28;15.80;99.90
3996;DHT22;2012;49.794;9.722;2022-09-09T05:31:06;15.70;99.90
3996;DHT22;2012;49.794;9.722;2022-09-09T05:33:40;15.70;99.90
3996;DHT22;2012;49.794;9.722;2022-09-09T05:36:13;15.80;99.90
3996;DHT22;2012;49.794;9.722;2022-09-09T05:38:40;15.90;99.90
3996;DHT22;2012;49.794;9.722;2022-09-09T05:41:08;16.00;99.90
3996;DHT22;2012;49.794;9.722;2022-09-09T05:43:36;15.80;99.90
3996;DHT22;2012;49.794;9.722;2022-09-09T05:46:08;16.00;99.90
3996;DHT22;2012;49.794;9.722;2022-09-09T05:48:40;16.10;99.90
3996;DHT22;2012;49.794;9.722;2022-09-09T05:51:09;16.10;99.90
3996;DHT22;2012;49.794;9.722;2022-09-09T05:53:39;16.00;99.90
3996;DHT22;2012;49.794;9.722;2022-09-09T05:56:19;16.10;99.90
3996;DHT22;2012;49.794;9.722;2022-09-09T05:58:46;16.10;99.90
3996;DHT22;2012;49.794;9.722;2022-09-09T06:01:28;16.20;99.90
3996;DHT22;2012;49.794;9.722;2022-09-09T06:03:56;16.30;99.90
3996;DHT22;2012;49.794;9.722;2022-09-09T06:06:25;16.10;99.90
3996;DHT22;2012;49.794;9.722;2022-09-09T06:08:54;15.90;99.90
3996;DHT22;2012;49.794;9.722;2022-09-09T06:11:24;15.90;99.90
3996;DHT22;2012;49.794;9.722;2022-09-09T06:13:52;16.10;99.90
3996;DHT22;2012;49.794;9.722;2022-09-09T06:16:25;16.10;99.90
3996;DHT22;2012;49.794;9.722;2022-09-09T06:18:54;16.10;99.90
3996;DHT22;2012;49.794;9.722;2022-09-09T06:21:26;16.20;99.90
3996;DHT22;2012;49.794;9.722;2022-09-09T06:23:54;16.30;99.90
3996;DHT22;2012;49.794;9.722;2022-09-09T06:26:31;16.40;99.90
3996;DHT22;2012;49.794;9.722;2022-09-09T06:28:58;16.20;99.90
3996;DHT22;2012;49.794;9.722;2022-09-09T06:31:27;16.20;99.90
3996;DHT22;2012;49.794;9.722;2022-09-09T06:33:58;16.50;99.90
3996;DHT22;2012;49.794;9.722;2022-09-09T06:36:30;16.50;99.90
3996;DHT22;2012;49.794;9.722;2022-09-09T06:38:57;16.50;99.90
3996;DHT22;2012;49.794;9.722;2022-09-09T06:41:26;16.50;99.90
3996;DHT22;2012;49.794;9.722;2022-09-09T06:43:53;16.50;99.90
3996;DHT22;2012;49.794;9.722;2022-09-09T06:46:23;16.50;99.90
3996;DHT22;2012;49.794;9.722;2022-09-09T06:48:55;16.50;99.90
3996;DHT22;2012;49.794;9.722;2022-09-09T06:51:23;16.50;99.90
3996;DHT22;2012;49.794;9.722;2022-09-09T06:53:55;16.50;99.90
3996;DHT22;2012;49.794;9.722;2022-09-09T06:56:28;16.50;99.90
3996;DHT22;2012;49.794;9.722;2022-09-09T06:58:57;16.60;99.90
3996;DHT22;2012;49.794;9.722;2022-09-09T07:01:27;16.70;99.90
3996;DHT22;2012;49.794;9.722;2022-09-09T07:03:55;16.90;99.90
3996;DHT22;2012;49.794;9.722;2022-09-09T07:06:43;16.90;99.90
3996;DHT22;2012;49.794;9.722;2022-09-09T07:09:15;16.80;99.90
3996;DHT22;2012;49.794;9.722;2022-09-09T07:11:45;16.90;99.90
3996;DHT22;2012;49.794;9.722;2022-09-09T07:14:12;16.90;99.90
3996;DHT22;2012;49.794;9.722;2022-09-09T07:16:41;17.00;99.90
3996;DHT22;2012;49.794;9.722;2022-09-09T07:19:09;17.00;99.90
3996;DHT22;2012;49.794;9.722;2022-09-09T07:21:35;17.00;99.90
3996;DHT22;2012;49.794;9.722;2022-09-09T07:24:02;17.10;99.90
3996;DHT22;2012;49.794;9.722;2022-09-09T07:26:31;17.10;99.90
3996;DHT22;2012;49.794;9.722;2022-09-09T07:28:58;17.20;99.90
3996;DHT22;2012;49.794;9.722;2022-09-09T07:31:30;17.30;99.90
3996;DHT22;2012;49.794;9.722;2022-09-09T07:33:58;17.30;99.90
3996;DHT22;2012;49.794;9.722;2022-09-09T07:36:38;17.40;99.90
3996;DHT22;2012;49.794;9.722;2022-09-09T07:39:08;17.40;99.90
3996;DHT22;2012;49.794;9.722;2022-09-09T07:41:48;17.40;99.90
3996;DHT22;2012;49.794;9.722;2022-09-09T07:44:18;17.50;99.90
3996;DHT22;2012;49.794;9.722;2022-09-09T07:46:45;17.40;99.90
3996;DHT22;2012;49.794;9.722;2022-09-09T07:49:12;17.50;99.90
3996;DHT22;2012;49.794;9.722;2022-09-09T07:51:42;17.50;99.90
3996;DHT22;2012;49.794;9.722;2022-09-09T07:54:11;17.50;99.90
3996;DHT22;2012;49.794;9.722;2022-09-09T07:56:38;17.60;99.90
3996;DHT22;2012;49.794;9.722;2022-09-09T07:59:06;17.70;99.90
3996;DHT22;2012;49.794;9.722;2022-09-09T08:01:36;17.70;99.90
3996;DHT22;2012;49.794;9.722;2022-09-09T08:04:07;17.90;99.90
3996;DHT22;2012;49.794;9.722;2022-09-09T08:06:37;17.80;99.90
3996;DHT22;2012;49.794;9.722;2022-09-09T08:09:05;17.70;99.90
3996;DHT22;2012;49.794;9.722;2022-09-09T08:11:33;17.80;99.90
3996;DHT22;2012;49.794;9.722;2022-09-09T08:14:06;17.90;99.90
3996;DHT22;2012;49.794;9.722;2022-09-09T08:16:37;18.10;99.90
3996;DHT22;2012;49.794;9.722;2022-09-09T08:19:05;18.00;99.90
3996;DHT22;2012;49.794;9.722;2022-09-09T08:21:35;18.00;99.90
3996;DHT22;2012;49.794;9.722;2022-09-09T08:24:04;18.10;99.90
3996;DHT22;2012;49.794;9.722;2022-09-09T08:26:36;18.30;99.90
3996;DHT22;2012;49.794;9.722;2022-09-09T08:29:05;18.30;99.90
3996;DHT22;2012;49.794;9.722;2022-09-09T08:31:38;18.40;99.90
3996;DHT22;2012;49.794;9.722;2022-09-09T08:34:06;18.40;99.90
3996;DHT22;2012;49.794;9.722;2022-09-09T08:36:36;18.40;99.90
3996;DHT22;2012;49.794;9.722;2022-09-09T08:39:04;18.50;99.90
3996;DHT22;2012;49.794;9.722;2022-09-09T08:44:23;18.70;99.90
3996;DHT22;2012;49.794;9.722;2022-09-09T08:47:05;18.90;99.90
3996;DHT22;2012;49.794;9.722;2022-09-09T08:52:51;19.00;99.90
3996;DHT22;2012;49.794;9.722;2022-09-09T08:57:52;19.40;99.90
3996;DHT22;2012;49.794;9.722;2022-09-09T09:00:20;19.50;99.90
3996;DHT22;2012;49.794;9.722;2022-09-09T09:08:37;19.50;99.90
3996;DHT22;2012;49.794;9.722;2022-09-09T09:11:07;19.50;99.90
3996;DHT22;2012;49.794;9.722;2022-09-09T09:13:43;19.50;99.90
3996;DHT22;2012;49.794;9.722;2022-09-09T09:16:35;19.80;99.90
3996;DHT22;2012;49.794;9.722;2022-09-09T09:19:08;19.90;99.90
3996;DHT22;2012;49.794;9.722;2022-09-09T09:21:52;19.90;99.90
3996;DHT22;2012;49.794;9.722;2022-09-09T09:24:28;20.00;99.90
3996;DHT22;2012;49.794;9.722;2022-09-09T09:27:00;20.10;99.90
3996;DHT22;2012;49.794;9.722;2022-09-09T09:29:33;20.20;99.90
3996;DHT22;2012;49.794;9.722;2022-09-09T09:32:22;20.40;99.90
3996;DHT22;2012;49.794;9.722;2022-09-09T09:34:56;20.40;99.90
3996;DHT22;2012;49.794;9.722;2022-09-09T09:37:34;20.30;99.90
3996;DHT22;2012;49.794;9.722;2022-09-09T09:40:24;20.30;99.90
3996;DHT22;2012;49.794;9.722;2022-09-09T09:42:59;20.30;99.90
3996;DHT22;2012;49.794;9.722;2022-09-09T09:45:27;20.30;99.90
3996;DHT22;2012;49.794;9.722;2022-09-09T09:48:05;20.40;99.90
3996;DHT22;2012;49.794;9.722;2022-09-09T09:50:33;20.50;99.90
3996;DHT22;2012;49.794;9.722;2022-09-09T09:53:03;20.70;99.90
3996;DHT22;2012;49.794;9.722;2022-09-09T09:55:33;20.90;99.90
3996;DHT22;2012;49.794;9.722;2022-09-09T09:58:05;21.10;99.90
3996;DHT22;2012;49.794;9.722;2022-09-09T10:00:33;21.20;99.90
3996;DHT22;2012;49.794;9.722;2022-09-09T10:03:01;21.10;99.90
3996;DHT22;2012;49.794;9.722;2022-09-09T10:05:29;21.00;99.90
3996;DHT22;2012;49.794;9.722;2022-09-09T10:08:12;20.90;99.90
3996;DHT22;2012;49.794;9.722;2022-09-09T10:11:01;20.70;99.90
3996;DHT22;2012;49.794;9.722;2022-09-09T10:16:31;20.50;99.90
3996;DHT22;2012;49.794;9.722;2022-09-09T10:19:04;20.40;99.90
3996;DHT22;2012;49.794;9.722;2022-09-09T10:33:10;19.40;99.90
3996;DHT22;2012;49.794;9.722;2022-09-09T10:36:03;19.20;99.90
3996;DHT22;2012;49.794;9.722;2022-09-09T10:38:40;18.70;99.90
3996;DHT22;2012;49.794;9.722;2022-09-09T10:41:11;18.10;99.90
3996;DHT22;2012;49.794;9.722;2022-09-09T10:46:56;18.20;99.90
3996;DHT22;2012;49.794;9.722;2022-09-09T10:50:43;18.00;99.90
3996;DHT22;2012;49.794;9.722;2022-09-09T10:55:25;18.00;99.90
3996;DHT22;2012;49.794;9.722;2022-09-09T10:57:58;18.30;99.90
3996;DHT22;2012;49.794;9.722;2022-09-09T11:00:44;18.60;99.90
3996;DHT22;2012;49.794;9.722;2022-09-09T11:03:26;18.90;99.90
3996;DHT22;2012;49.794;9.722;2022-09-09T11:08:29;19.50;99.90
3996;DHT22;2012;49.794;9.722;2022-09-09T11:11:03;19.80;99.90
3996;DHT22;2012;49.794;9.722;2022-09-09T11:14:02;19.90;99.90
3996;DHT22;2012;49.794;9.722;2022-09-09T11:16:36;20.00;99.90
3996;DHT22;2012;49.794;9.722;2022-09-09T11:19:35;20.30;99.90
3996;DHT22;2012;49.794;9.722;2022-09-09T11:22:05;20.50;99.90
3996;DHT22;2012;49.794;9.722;2022-09-09T11:24:40;20.60;99.90
3996;DHT22;2012;49.794;9.722;2022-09-09T11:27:22;21.00;99.90
3996;DHT22;2012;49.794;9.722;2022-09-09T11:30:05;20.90;99.90
3996;DHT22;2012;49.794;9.722;2022-09-09T11:38:28;21.30;99.90
3996;DHT22;2012;49.794;9.722;2022-09-09T11:40:57;21.40;99.90
3996;DHT22;2012;49.794;9.722;2022-09-09T11:43:34;21.60;99.90
3996;DHT22;2012;49.794;9.722;2022-09-09T11:46:04;21.90;99.90
3996;DHT22;2012;49.794;9.722;2022-09-09T11:48:36;21.90;99.90
3996;DHT22;2012;49.794;9.722;2022-09-09T11:51:09;22.00;99.90
3996;DHT22;2012;49.794;9.722;2022-09-09T11:54:21;21.70;99.90
3996;DHT22;2012;49.794;9.722;2022-09-09T11:56:49;21.60;99.90
3996;DHT22;2012;49.794;9.722;2022-09-09T11:59:31;21.80;99.90
3996;DHT22;2012;49.794;9.722;2022-09-09T12:02:03;21.80;99.90
3996;DHT22;2012;49.794;9.722;2022-09-09T12:04:41;21.70;99.90
3996;DHT22;2012;49.794;9.722;2022-09-09T12:17:22;22.20;99.90
3996;DHT22;2012;49.794;9.722;2022-09-09T12:20:08;22.30;99.90
3996;DHT22;2012;49.794;9.722;2022-09-09T12:23:18;22.50;99.90
3996;DHT22;2012;49.794;9.722;2022-09-09T12:28:17;22.40;99.90
3996;DHT22;2012;49.794;9.722;2022-09-09T12:33:39;22.40;99.90
3996;DHT22;2012;49.794;9.722;2022-09-09T12:36:22;22.40;99.90
3996;DHT22;2012;49.794;9.722;2022-09-09T12:38:50;22.50;99.90
3996;DHT22;2012;49.794;9.722;2022-09-09T12:43:46;22.70;99.90
3996;DHT22;2012;49.794;9.722;2022-09-09T12:46:36;23.00;99.90
3996;DHT22;2012;49.794;9.722;2022-09-09T12:49:04;23.00;99.20
3996;DHT22;2012;49.794;9.722;2022-09-09T12:51:33;22.50;98.30
3996;DHT22;2012;49.794;9.722;2022-09-09T12:54:00;22.60;99.70
3996;DHT22;2012;49.794;9.722;2022-09-09T12:56:30;22.60;99.10
3996;DHT22;2012;49.794;9.722;2022-09-09T12:58:58;22.40;99.90
3996;DHT22;2012;49.794;9.722;2022-09-09T13:01:32;22.00;97.70
3996;DHT22;2012;49.794;9.722;2022-09-09T13:04:00;22.10;98.60
3996;DHT22;2012;49.794;9.722;2022-09-09T13:06:31;22.20;99.60
3996;DHT22;2012;49.794;9.722;2022-09-09T13:09:00;22.20;98.10
3996;DHT22;2012;49.794;9.722;2022-09-09T13:11:36;22.40;97.30
3996;DHT22;2012;49.794;9.722;2022-09-09T13:14:05;22.40;96.50
3996;DHT22;2012;49.794;9.722;2022-09-09T13:16:34;22.30;96.90
3996;DHT22;2012;49.794;9.722;2022-09-09T13:19:15;22.30;96.60
3996;DHT22;2012;49.794;9.722;2022-09-09T13:21:43;22.40;96.90
3996;DHT22;2012;49.794;9.722;2022-09-09T13:24:31;22.40;96.50
3996;DHT22;2012;49.794;9.722;2022-09-09T13:27:28;22.60;96.50
3996;DHT22;2012;49.794;9.722;2022-09-09T13:29:56;22.90;96.20
3996;DHT22;2012;49.794;9.722;2022-09-09T13:32:25;23.00;92.60
3996;DHT22;2012;49.794;9.722;2022-09-09T13:34:54;23.20;93.50
3996;DHT22;2012;49.794;9.722;2022-09-09T13:37:39;23.40;93.50
3996;DHT22;2012;49.794;9.722;2022-09-09T13:40:18;23.50;91.50
3996;DHT22;2012;49.794;9.722;2022-09-09T13:42:46;23.80;87.20
3996;DHT22;2012;49.794;9.722;2022-09-09T13:45:20;23.90;86.50
3996;DHT22;2012;49.794;9.722;2022-09-09T13:47:48;24.10;86.90
3996;DHT22;2012;49.794;9.722;2022-09-09T13:52:55;23.60;87.60
3996;DHT22;2012;49.794;9.722;2022-09-09T13:55:28;23.30;85.90
3996;DHT22;2012;49.794;9.722;2022-09-09T14:00:22;23.90;83.70
3996;DHT22;2012;49.794;9.722;2022-09-09T14:02:50;23.80;86.40
3996;DHT22;2012;49.794;9.722;2022-09-09T14:05:18;23.70;82.60
3996;DHT22;2012;49.794;9.722;2022-09-09T14:07:45;23.50;84.00
3996;DHT22;2012;49.794;9.722;2022-09-09T14:10:18;23.40;88.30
3996;DHT22;2012;49.794;9.722;2022-09-09T14:12:44;23.30;86.00
3996;DHT22;2012;49.794;9.722;2022-09-09T14:15:13;23.10;86.60
3996;DHT22;2012;49.794;9.722;2022-09-09T14:17:41;23.00;84.70
3996;DHT22;2012;49.794;9.722;2022-09-09T14:20:08;22.90;84.90
3996;DHT22;2012;49.794;9.722;2022-09-09T14:22:36;22.90;85.50
3996;DHT22;2012;49.794;9.722;2022-09-09T14:25:03;22.90;86.10
3996;DHT22;2012;49.794;9.722;2022-09-09T14:27:30;22.70;86.60
3996;DHT22;2012;49.794;9.722;2022-09-09T14:29:57;22.50;87.30
3996;DHT22;2012;49.794;9.722;2022-09-09T14:32:26;22.60;88.20
3996;DHT22;2012;49.794;9.722;2022-09-09T14:34:53;22.80;88.20
3996;DHT22;2012;49.794;9.722;2022-09-09T14:37:20;23.10;87.50
3996;DHT22;2012;49.794;9.722;2022-09-09T14:39:47;23.10;89.10
3996;DHT22;2012;49.794;9.722;2022-09-09T14:42:14;23.10;88.00
3996;DHT22;2012;49.794;9.722;2022-09-09T14:44:40;22.90;89.10
3996;DHT22;2012;49.794;9.722;2022-09-09T14:47:08;22.80;90.90
3996;DHT22;2012;49.794;9.722;2022-09-09T14:49:35;22.40;90.00
3996;DHT22;2012;49.794;9.722;2022-09-09T14:52:03;22.40;91.00
3996;DHT22;2012;49.794;9.722;2022-09-09T14:54:31;22.10;89.70
3996;DHT22;2012;49.794;9.722;2022-09-09T14:56:58;22.00;90.70
3996;DHT22;2012;49.794;9.722;2022-09-09T14:59:25;21.90;91.40
3996;DHT22;2012;49.794;9.722;2022-09-09T15:01:51;21.90;91.60
3996;DHT22;2012;49.794;9.722;2022-09-09T15:04:19;21.90;92.40
3996;DHT22;2012;49.794;9.722;2022-09-09T15:06:46;22.00;92.80
3996;DHT22;2012;49.794;9.722;2022-09-09T15:09:15;22.00;93.30
3996;DHT22;2012;49.794;9.722;2022-09-09T15:11:41;21.90;92.10
3996;DHT22;2012;49.794;9.722;2022-09-09T15:14:09;21.90;92.80
3996;DHT22;2012;49.794;9.722;2022-09-09T15:16:38;21.90;92.30
3996;DHT22;2012;49.794;9.722;2022-09-09T15:19:05;22.10;91.80
3996;DHT22;2012;49.794;9.722;2022-09-09T15:21:35;22.10;91.30
3996;DHT22;2012;49.794;9.722;2022-09-09T15:24:02;22.10;91.80
3996;DHT22;2012;49.794;9.722;2022-09-09T15:26:30;22.10;90.60
3996;DHT22;2012;49.794;9.722;2022-09-09T15:28:57;22.10;91.10
3996;DHT22;2012;49.794;9.722;2022-09-09T15:31:28;22.10;91.70
3996;DHT22;2012;49.794;9.722;2022-09-09T15:34:00;22.00;91.90
3996;DHT22;2012;49.794;9.722;2022-09-09T15:36:34;22.00;91.80
3996;DHT22;2012;49.794;9.722;2022-09-09T15:39:04;22.10;91.30
3996;DHT22;2012;49.794;9.722;2022-09-09T15:41:31;22.20;92.30
3996;DHT22;2012;49.794;9.722;2022-09-09T15:43:59;22.20;92.70
3996;DHT22;2012;49.794;9.722;2022-09-09T15:49:08;22.20;91.90
3996;DHT22;2012;49.794;9.722;2022-09-09T15:51:42;22.10;92.40
3996;DHT22;2012;49.794;9.722;2022-09-09T15:54:15;22.10;91.60
3996;DHT22;2012;49.794;9.722;2022-09-09T15:56:45;22.20;90.50
3996;DHT22;2012;49.794;9.722;2022-09-09T15:59:12;22.10;90.10
3996;DHT22;2012;49.794;9.722;2022-09-09T16:01:41;22.10;89.40
3996;DHT22;2012;49.794;9.722;2022-09-09T16:04:09;22.10;86.90
3996;DHT22;2012;49.794;9.722;2022-09-09T16:06:36;22.00;87.00
3996;DHT22;2012;49.794;9.722;2022-09-09T16:09:05;22.00;86.70
3996;DHT22;2012;49.794;9.722;2022-09-09T16:11:35;21.90;88.00
3996;DHT22;2012;49.794;9.722;2022-09-09T16:14:02;21.80;87.60
3996;DHT22;2012;49.794;9.722;2022-09-09T16:16:30;21.60;87.40
3996;DHT22;2012;49.794;9.722;2022-09-09T16:18:59;21.50;89.40
3996;DHT22;2012;49.794;9.722;2022-09-09T16:21:31;21.50;89.90
3996;DHT22;2012;49.794;9.722;2022-09-09T16:24:01;21.40;91.00
3996;DHT22;2012;49.794;9.722;2022-09-09T16:26:30;21.50;90.60
3996;DHT22;2012;49.794;9.722;2022-09-09T16:28:58;21.40;91.30
3996;DHT22;2012;49.794;9.722;2022-09-09T16:31:27;21.30;91.60
3996;DHT22;2012;49.794;9.722;2022-09-09T16:33:54;21.30;91.90
3996;DHT22;2012;49.794;9.722;2022-09-09T16:36:22;21.30;92.20
3996;DHT22;2012;49.794;9.722;2022-09-09T16:38:58;21.20;92.70
3996;DHT22;2012;49.794;9.722;2022-09-09T16:41:29;21.10;92.80
3996;DHT22;2012;49.794;9.722;2022-09-09T16:43:57;21.20;93.00
3996;DHT22;2012;49.794;9.722;2022-09-09T16:46:27;21.20;93.30
3996;DHT22;2012;49.794;9.722;2022-09-09T16:48:56;21.10;93.10
3996;DHT22;2012;49.794;9.722;2022-09-09T16:51:32;21.00;93.50
3996;DHT22;2012;49.794;9.722;2022-09-09T16:54:02;21.00;94.20
3996;DHT22;2012;49.794;9.722;2022-09-09T16:56:31;21.00;94.30
3996;DHT22;2012;49.794;9.722;2022-09-09T16:59:05;20.80;94.40
3996;DHT22;2012;49.794;9.722;2022-09-09T17:01:35;20.80;95.30
3996;DHT22;2012;49.794;9.722;2022-09-09T17:04:12;20.80;95.40
3996;DHT22;2012;49.794;9.722;2022-09-09T17:06:40;20.70;96.10
3996;DHT22;2012;49.794;9.722;2022-09-09T17:09:09;20.60;96.60
3996;DHT22;2012;49.794;9.722;2022-09-09T17:11:38;20.70;97.10
3996;DHT22;2012;49.794;9.722;2022-09-09T17:14:07;20.60;97.60
3996;DHT22;2012;49.794;9.722;2022-09-09T17:16:36;20.40;99.90
3996;DHT22;2012;49.794;9.722;2022-09-09T17:19:03;20.30;99.90
3996;DHT22;2012;49.794;9.722;2022-09-09T17:21:33;20.30;99.90
3996;DHT22;2012;49.794;9.722;2022-09-09T17:23:59;20.10;99.90
3996;DHT22;2012;49.794;9.722;2022-09-09T17:26:29;20.00;99.90
3996;DHT22;2012;49.794;9.722;2022-09-09T17:28:57;20.10;99.90
3996;DHT22;2012;49.794;9.722;2022-09-09T17:31:26;20.00;99.90
3996;DHT22;2012;49.794;9.722;2022-09-09T17:33:55;19.90;99.90
3996;DHT22;2012;49.794;9.722;2022-09-09T17:36:24;19.90;99.90
3996;DHT22;2012;49.794;9.722;2022-09-09T17:38:52;19.80;99.90
3996;DHT22;2012;49.794;9.722;2022-09-09T17:41:31;19.90;99.90
3996;DHT22;2012;49.794;9.722;2022-09-09T17:43:58;19.90;99.90
3996;DHT22;2012;49.794;9.722;2022-09-09T17:46:30;19.90;99.90
3996;DHT22;2012;49.794;9.722;2022-09-09T17:49:01;19.90;99.90
3996;DHT22;2012;49.794;9.722;2022-09-09T17:51:30;19.80;99.90
3996;DHT22;2012;49.794;9.722;2022-09-09T17:53:59;19.70;99.90
3996;DHT22;2012;49.794;9.722;2022-09-09T17:56:29;19.70;99.90
3996;DHT22;2012;49.794;9.722;2022-09-09T17:59:02;19.70;99.90
3996;DHT22;2012;49.794;9.722;2022-09-09T18:01:31;19.60;99.90
3996;DHT22;2012;49.794;9.722;2022-09-09T18:04:02;19.60;99.90
3996;DHT22;2012;49.794;9.722;2022-09-09T18:06:33;19.60;99.90
3996;DHT22;2012;49.794;9.722;2022-09-09T18:09:04;19.30;99.90
3996;DHT22;2012;49.794;9.722;2022-09-09T18:11:34;19.40;99.90
3996;DHT22;2012;49.794;9.722;2022-09-09T18:14:03;19.20;99.90
3996;DHT22;2012;49.794;9.722;2022-09-09T18:16:31;19.30;99.90
3996;DHT22;2012;49.794;9.722;2022-09-09T18:19:04;19.30;99.90
3996;DHT22;2012;49.794;9.722;2022-09-09T18:21:32;19.20;99.90
3996;DHT22;2012;49.794;9.722;2022-09-09T18:24:04;19.30;99.90
3996;DHT22;2012;49.794;9.722;2022-09-09T18:26:32;19.20;99.90
3996;DHT22;2012;49.794;9.722;2022-09-09T18:29:06;19.00;99.90